Terminal Aerodrome Forecast
Issued by NWS Cleveland, OH

Home | Current Version | Previous Version | Text Only | Print | Product List | Glossary Off
Versions: 1 2 3 4 5 6 7 8 9 10 11 12 13 14 15 16 17 18 19 20 21 22

814
FTUS41 KCLE 221903 AAA
TAFYNG
TAF AMD
KYNG 221903Z 2219/2318 06010KT P6SM BKN006 OVC010
      TEMPO 2220/2222 BKN012
     FM230800 12008KT P6SM OVC007
     FM231100 13009KT P6SM -RA OVC007
     FM231400 14010KT 5SM -RA OVC003=

USA.gov is the U.S. government's official web portal to all federal, state and local government web resources and services.